sensor_id;sensor_type;location;lat;lon;timestamp;pressure;altitude;pressure_sealevel;temperature;humidity
54290;BME280;40196;39.774;2.728;2022-07-09T00:01:26;101738.47;;;25.08;46.10
54290;BME280;40196;39.774;2.728;2022-07-09T00:03:52;101741.56;;;25.12;45.91
54290;BME280;40196;39.774;2.728;2022-07-09T00:06:17;101739.50;;;25.14;45.76
54290;BME280;40196;39.774;2.728;2022-07-09T00:08:43;101732.22;;;25.08;45.63
54290;BME280;40196;39.774;2.728;2022-07-09T00:11:08;101730.56;;;25.07;45.92
54290;BME280;40196;39.774;2.728;2022-07-09T00:13:33;101728.25;;;25.04;45.09
54290;BME280;40196;39.774;2.728;2022-07-09T00:15:59;101730.97;;;25.04;46.20
54290;BME280;40196;39.774;2.728;2022-07-09T00:18:24;101730.34;;;25.02;46.03
54290;BME280;40196;39.774;2.728;2022-07-09T00:20:49;101728.69;;;25.01;46.35
54290;BME280;40196;39.774;2.728;2022-07-09T00:23:15;101729.66;;;24.86;46.76
54290;BME280;40196;39.774;2.728;2022-07-09T00:25:40;101723.34;;;24.52;47.33
54290;BME280;40196;39.774;2.728;2022-07-09T00:28:05;101727.75;;;24.67;47.67
54290;BME280;40196;39.774;2.728;2022-07-09T00:30:31;101722.38;;;24.73;48.05
54290;BME280;40196;39.774;2.728;2022-07-09T00:32:56;101719.69;;;24.73;47.46
54290;BME280;40196;39.774;2.728;2022-07-09T00:35:22;101715.94;;;24.74;47.12
54290;BME280;40196;39.774;2.728;2022-07-09T00:37:47;101719.44;;;24.62;47.33
54290;BME280;40196;39.774;2.728;2022-07-09T00:40:12;101722.50;;;24.17;48.87
54290;BME280;40196;39.774;2.728;2022-07-09T00:42:38;101717.81;;;24.32;49.01
54290;BME280;40196;39.774;2.728;2022-07-09T00:45:03;101719.28;;;24.41;49.04
54290;BME280;40196;39.774;2.728;2022-07-09T00:47:29;101725.13;;;24.45;48.94
54290;BME280;40196;39.774;2.728;2022-07-09T00:49:55;101711.25;;;24.48;48.81
54290;BME280;40196;39.774;2.728;2022-07-09T00:52:20;101717.28;;;24.50;48.79
54290;BME280;40196;39.774;2.728;2022-07-09T00:54:46;101719.81;;;24.52;48.74
54290;BME280;40196;39.774;2.728;2022-07-09T00:57:11;101710.56;;;24.39;48.49
54290;BME280;40196;39.774;2.728;2022-07-09T00:59:38;101711.00;;;24.36;48.93
54290;BME280;40196;39.774;2.728;2022-07-09T01:02:03;101717.19;;;24.30;49.05
54290;BME280;40196;39.774;2.728;2022-07-09T01:04:29;101696.84;;;24.28;49.22
54290;BME280;40196;39.774;2.728;2022-07-09T01:06:54;101704.34;;;24.39;49.29
54290;BME280;40196;39.774;2.728;2022-07-09T01:09:20;101705.81;;;24.41;49.06
54290;BME280;40196;39.774;2.728;2022-07-09T01:11:46;101713.78;;;23.87;50.72
54290;BME280;40196;39.774;2.728;2022-07-09T01:14:11;101704.34;;;23.97;50.60
54290;BME280;40196;39.774;2.728;2022-07-09T01:16:37;101709.38;;;24.07;50.12
54290;BME280;40196;39.774;2.728;2022-07-09T01:19:03;101707.44;;;23.94;50.72
54290;BME280;40196;39.774;2.728;2022-07-09T01:21:28;101710.81;;;24.03;50.52
54290;BME280;40196;39.774;2.728;2022-07-09T01:23:54;101713.91;;;24.07;50.55
54290;BME280;40196;39.774;2.728;2022-07-09T01:26:19;101703.69;;;23.67;51.31
54290;BME280;40196;39.774;2.728;2022-07-09T01:28:45;101702.41;;;23.91;51.16
54290;BME280;40196;39.774;2.728;2022-07-09T01:31:11;101696.25;;;23.97;50.85
54290;BME280;40196;39.774;2.728;2022-07-09T01:33:37;101694.34;;;23.70;51.64
54290;BME280;40196;39.774;2.728;2022-07-09T01:36:02;101703.41;;;23.62;51.97
54290;BME280;40196;39.774;2.728;2022-07-09T01:38:27;101700.28;;;23.80;51.53
54290;BME280;40196;39.774;2.728;2022-07-09T01:40:53;101698.03;;;23.84;51.82
54290;BME280;40196;39.774;2.728;2022-07-09T01:43:18;101687.28;;;23.90;51.60
54290;BME280;40196;39.774;2.728;2022-07-09T01:45:43;101692.88;;;23.60;52.44
54290;BME280;40196;39.774;2.728;2022-07-09T01:48:09;101692.56;;;23.77;52.08
54290;BME280;40196;39.774;2.728;2022-07-09T01:50:34;101684.34;;;23.85;52.19
54290;BME280;40196;39.774;2.728;2022-07-09T01:52:59;101685.28;;;23.71;51.63
54290;BME280;40196;39.774;2.728;2022-07-09T01:55:25;101678.25;;;23.76;51.83
54290;BME280;40196;39.774;2.728;2022-07-09T01:57:50;101681.94;;;23.69;52.08
54290;BME280;40196;39.774;2.728;2022-07-09T02:00:15;101676.81;;;23.52;52.86
54290;BME280;40196;39.774;2.728;2022-07-09T02:02:43;101675.91;;;23.67;52.93
54290;BME280;40196;39.774;2.728;2022-07-09T02:05:08;101681.63;;;23.78;52.28
54290;BME280;40196;39.774;2.728;2022-07-09T02:07:34;101674.69;;;23.69;52.50
54290;BME280;40196;39.774;2.728;2022-07-09T02:10:00;101677.81;;;23.73;52.84
54290;BME280;40196;39.774;2.728;2022-07-09T02:12:25;101670.44;;;23.81;52.38
54290;BME280;40196;39.774;2.728;2022-07-09T02:14:51;101674.44;;;23.86;52.65
54290;BME280;40196;39.774;2.728;2022-07-09T02:17:16;101670.50;;;23.88;52.40
54290;BME280;40196;39.774;2.728;2022-07-09T02:19:42;101663.03;;;23.90;51.95
54290;BME280;40196;39.774;2.728;2022-07-09T02:22:07;101670.44;;;23.81;52.56
54290;BME280;40196;39.774;2.728;2022-07-09T02:24:32;101663.84;;;23.84;52.32
54290;BME280;40196;39.774;2.728;2022-07-09T02:26:58;101674.53;;;23.77;52.75
54290;BME280;40196;39.774;2.728;2022-07-09T02:29:23;101679.50;;;23.74;52.14
54290;BME280;40196;39.774;2.728;2022-07-09T02:31:49;101670.25;;;23.83;51.97
54290;BME280;40196;39.774;2.728;2022-07-09T02:34:14;101671.97;;;23.91;52.16
54290;BME280;40196;39.774;2.728;2022-07-09T02:36:39;101673.56;;;23.85;52.81
54290;BME280;40196;39.774;2.728;2022-07-09T02:39:05;101668.59;;;23.82;52.76
54290;BME280;40196;39.774;2.728;2022-07-09T02:41:30;101672.56;;;23.86;52.72
54290;BME280;40196;39.774;2.728;2022-07-09T02:43:56;101666.13;;;23.87;52.69
54290;BME280;40196;39.774;2.728;2022-07-09T02:46:21;101670.50;;;23.88;52.52
54290;BME280;40196;39.774;2.728;2022-07-09T02:48:46;101667.63;;;23.90;52.55
54290;BME280;40196;39.774;2.728;2022-07-09T02:51:12;101672.56;;;23.86;52.40
54290;BME280;40196;39.774;2.728;2022-07-09T02:53:37;101672.44;;;23.73;52.84
54290;BME280;40196;39.774;2.728;2022-07-09T02:56:02;101679.69;;;23.72;52.98
54290;BME280;40196;39.774;2.728;2022-07-09T02:58:28;101678.94;;;23.57;53.69
54290;BME280;40196;39.774;2.728;2022-07-09T03:00:53;101669.50;;;23.39;54.79
54290;BME280;40196;39.774;2.728;2022-07-09T03:03:18;101677.69;;;23.53;54.51
54290;BME280;40196;39.774;2.728;2022-07-09T03:05:44;101671.97;;;23.62;54.20
54290;BME280;40196;39.774;2.728;2022-07-09T03:08:09;101666.94;;;23.59;54.31
54290;BME280;40196;39.774;2.728;2022-07-09T03:10:35;101671.31;;;23.60;54.29
54290;BME280;40196;39.774;2.728;2022-07-09T03:13:00;101673.38;;;23.58;54.33
54290;BME280;40196;39.774;2.728;2022-07-09T03:15:26;101668.56;;;23.54;54.85
54290;BME280;40196;39.774;2.728;2022-07-09T03:17:51;101670.63;;;23.52;55.15
54290;BME280;40196;39.774;2.728;2022-07-09T03:20:17;101672.34;;;23.59;55.48
54290;BME280;40196;39.774;2.728;2022-07-09T03:22:42;101666.75;;;23.61;55.59
54290;BME280;40196;39.774;2.728;2022-07-09T03:25:07;101678.94;;;23.57;55.73
54290;BME280;40196;39.774;2.728;2022-07-09T03:27:33;101672.53;;;23.58;56.00
54290;BME280;40196;39.774;2.728;2022-07-09T03:29:59;101673.59;;;23.63;55.56
54290;BME280;40196;39.774;2.728;2022-07-09T03:32:24;101686.69;;;23.67;55.67
54290;BME280;40196;39.774;2.728;2022-07-09T03:34:50;101690.06;;;23.47;56.16
54290;BME280;40196;39.774;2.728;2022-07-09T03:37:17;101683.84;;;23.47;56.07
54290;BME280;40196;39.774;2.728;2022-07-09T03:39:42;101686.78;;;23.52;56.00
54290;BME280;40196;39.774;2.728;2022-07-09T03:42:07;101690.56;;;23.36;56.72
54290;BME280;40196;39.774;2.728;2022-07-09T03:44:33;101696.34;;;23.33;57.10
54290;BME280;40196;39.774;2.728;2022-07-09T03:46:59;101686.72;;;23.45;56.67
54290;BME280;40196;39.774;2.728;2022-07-09T03:49:24;101679.34;;;23.54;56.69
54290;BME280;40196;39.774;2.728;2022-07-09T03:51:50;101689.31;;;23.60;56.61
54290;BME280;40196;39.774;2.728;2022-07-09T03:54:15;101687.19;;;23.49;57.01
54290;BME280;40196;39.774;2.728;2022-07-09T03:56:40;101690.50;;;23.51;56.62
54290;BME280;40196;39.774;2.728;2022-07-09T03:59:06;101683.25;;;23.51;56.82
54290;BME280;40196;39.774;2.728;2022-07-09T04:01:31;101685.94;;;23.51;56.85
54290;BME280;40196;39.774;2.728;2022-07-09T04:03:57;101695.09;;;23.57;57.12
54290;BME280;40196;39.774;2.728;2022-07-09T04:06:23;101691.47;;;23.43;57.60
54290;BME280;40196;39.774;2.728;2022-07-09T04:08:49;101686.44;;;23.33;58.13
54290;BME280;40196;39.774;2.728;2022-07-09T04:11:14;101681.78;;;23.49;57.67
54290;BME280;40196;39.774;2.728;2022-07-09T04:13:40;101685.53;;;23.54;57.18
54290;BME280;40196;39.774;2.728;2022-07-09T04:16:05;101689.91;;;23.55;57.22
54290;BME280;40196;39.774;2.728;2022-07-09T04:18:31;101695.75;;;23.59;57.23
54290;BME280;40196;39.774;2.728;2022-07-09T04:20:56;101689.09;;;23.55;57.02
54290;BME280;40196;39.774;2.728;2022-07-09T04:23:23;101687.59;;;23.52;56.98
54290;BME280;40196;39.774;2.728;2022-07-09T04:25:48;101691.22;;;23.38;58.07
54290;BME280;40196;39.774;2.728;2022-07-09T04:28:16;101686.16;;;23.28;58.68
54290;BME280;40196;39.774;2.728;2022-07-09T04:30:41;101685.38;;;23.34;58.38
54290;BME280;40196;39.774;2.728;2022-07-09T04:33:06;101686.47;;;23.40;58.18
54290;BME280;40196;39.774;2.728;2022-07-09T04:35:32;101679.81;;;23.36;58.58
54290;BME280;40196;39.774;2.728;2022-07-09T04:37:57;101687.19;;;23.49;58.33
54290;BME280;40196;39.774;2.728;2022-07-09T04:40:23;101695.69;;;23.52;58.56
54290;BME280;40196;39.774;2.728;2022-07-09T04:42:48;101689.31;;;23.60;58.09
54290;BME280;40196;39.774;2.728;2022-07-09T04:45:13;101688.50;;;23.59;58.04
54290;BME280;40196;39.774;2.728;2022-07-09T04:47:39;101695.56;;;23.60;57.98
54290;BME280;40196;39.774;2.728;2022-07-09T04:50:04;101696.59;;;23.38;59.05
54290;BME280;40196;39.774;2.728;2022-07-09T04:52:30;101691.53;;;23.50;58.58
54290;BME280;40196;39.774;2.728;2022-07-09T04:54:55;101693.84;;;23.53;58.58
54290;BME280;40196;39.774;2.728;2022-07-09T04:57:21;101700.44;;;23.50;58.75
54290;BME280;40196;39.774;2.728;2022-07-09T04:59:47;101694.47;;;23.55;58.92
54290;BME280;40196;39.774;2.728;2022-07-09T05:02:12;101694.28;;;23.56;59.09
54290;BME280;40196;39.774;2.728;2022-07-09T05:04:39;101701.53;;;23.34;59.80
54290;BME280;40196;39.774;2.728;2022-07-09T05:07:04;101700.72;;;23.34;59.79
54290;BME280;40196;39.774;2.728;2022-07-09T05:09:30;101711.78;;;23.46;59.25
54290;BME280;40196;39.774;2.728;2022-07-09T05:11:56;101701.66;;;23.48;59.30
54290;BME280;40196;39.774;2.728;2022-07-09T05:14:21;101705.38;;;23.47;59.97
54290;BME280;40196;39.774;2.728;2022-07-09T05:16:47;101702.56;;;23.55;59.69
54290;BME280;40196;39.774;2.728;2022-07-09T05:19:12;101704.66;;;23.59;59.58
54290;BME280;40196;39.774;2.728;2022-07-09T05:21:38;101711.31;;;23.63;59.62
54290;BME280;40196;39.774;2.728;2022-07-09T05:24:03;101717.44;;;23.51;60.07
54290;BME280;40196;39.774;2.728;2022-07-09T05:26:29;101709.41;;;23.57;60.10
54290;BME280;40196;39.774;2.728;2022-07-09T05:28:54;101707.59;;;23.65;60.03
54290;BME280;40196;39.774;2.728;2022-07-09T05:31:20;101710.97;;;23.73;59.71
54290;BME280;40196;39.774;2.728;2022-07-09T05:33:45;101710.59;;;23.76;59.87
54290;BME280;40196;39.774;2.728;2022-07-09T05:36:12;101710.44;;;23.78;60.09
54290;BME280;40196;39.774;2.728;2022-07-09T05:38:38;101702.50;;;23.76;59.89
54290;BME280;40196;39.774;2.728;2022-07-09T05:41:03;101707.25;;;23.74;60.18
54290;BME280;40196;39.774;2.728;2022-07-09T05:43:28;101709.94;;;23.74;60.17
54290;BME280;40196;39.774;2.728;2022-07-09T05:45:54;101720.53;;;23.76;60.22
54290;BME280;40196;39.774;2.728;2022-07-09T05:48:19;101719.16;;;23.80;60.08
54290;BME280;40196;39.774;2.728;2022-07-09T05:50:44;101721.00;;;23.79;60.27
54290;BME280;40196;39.774;2.728;2022-07-09T05:53:10;101724.75;;;23.85;59.97
54290;BME280;40196;39.774;2.728;2022-07-09T05:55:35;101732.06;;;23.91;60.25
54290;BME280;40196;39.774;2.728;2022-07-09T05:58:00;101720.50;;;23.97;60.31
54290;BME280;40196;39.774;2.728;2022-07-09T06:00:26;101724.91;;;24.05;60.27
54290;BME280;40196;39.774;2.728;2022-07-09T06:02:51;101734.28;;;24.09;60.19
54290;BME280;40196;39.774;2.728;2022-07-09T06:05:17;101738.88;;;24.15;59.96
54290;BME280;40196;39.774;2.728;2022-07-09T06:07:47;101734.13;;;24.24;60.11
54290;BME280;40196;39.774;2.728;2022-07-09T06:10:12;101740.59;;;24.30;60.26
54290;BME280;40196;39.774;2.728;2022-07-09T06:12:39;101735.00;;;24.31;60.46
54290;BME280;40196;39.774;2.728;2022-07-09T06:15:07;101746.50;;;24.47;60.02
54290;BME280;40196;39.774;2.728;2022-07-09T06:17:32;101740.16;;;24.61;59.91
54290;BME280;40196;39.774;2.728;2022-07-09T06:19:58;101738.72;;;24.65;59.75
54290;BME280;40196;39.774;2.728;2022-07-09T06:22:23;101737.50;;;24.68;59.34
54290;BME280;40196;39.774;2.728;2022-07-09T06:24:48;101745.81;;;24.73;59.24
54290;BME280;40196;39.774;2.728;2022-07-09T06:27:14;101741.28;;;24.80;59.16
54290;BME280;40196;39.774;2.728;2022-07-09T06:29:39;101750.44;;;24.92;58.97
54290;BME280;40196;39.774;2.728;2022-07-09T06:32:05;101750.69;;;25.04;59.32
54290;BME280;40196;39.774;2.728;2022-07-09T06:34:30;101756.53;;;25.14;59.26
54290;BME280;40196;39.774;2.728;2022-07-09T06:36:55;101748.91;;;25.25;58.96
54290;BME280;40196;39.774;2.728;2022-07-09T06:39:21;101741.84;;;25.30;58.33
54290;BME280;40196;39.774;2.728;2022-07-09T06:42:05;101746.66;;;25.42;57.61
54290;BME280;40196;39.774;2.728;2022-07-09T06:44:31;101753.09;;;25.47;57.04
54290;BME280;40196;39.774;2.728;2022-07-09T06:46:56;101748.72;;;25.60;57.15
54290;BME280;40196;39.774;2.728;2022-07-09T06:49:21;101748.09;;;25.64;56.39
54290;BME280;40196;39.774;2.728;2022-07-09T06:51:47;101756.22;;;25.71;55.99
54290;BME280;40196;39.774;2.728;2022-07-09T06:54:12;101749.56;;;25.80;55.82
54290;BME280;40196;39.774;2.728;2022-07-09T06:56:37;101753.91;;;25.88;55.58
54290;BME280;40196;39.774;2.728;2022-07-09T06:59:03;101743.97;;;25.95;55.19
54290;BME280;40196;39.774;2.728;2022-07-09T07:01:28;101752.09;;;26.02;54.85
54290;BME280;40196;39.774;2.728;2022-07-09T07:03:53;101758.09;;;26.04;54.55
54290;BME280;40196;39.774;2.728;2022-07-09T07:06:19;101748.94;;;26.11;54.36
54290;BME280;40196;39.774;2.728;2022-07-09T07:08:44;101749.31;;;26.15;54.63
54290;BME280;40196;39.774;2.728;2022-07-09T07:11:09;101756.81;;;26.20;54.40
54290;BME280;40196;39.774;2.728;2022-07-09T07:13:35;101743.28;;;26.26;54.60
54290;BME280;40196;39.774;2.728;2022-07-09T07:16:00;101749.91;;;26.37;54.10
54290;BME280;40196;39.774;2.728;2022-07-09T07:18:25;101740.28;;;26.48;53.61
54290;BME280;40196;39.774;2.728;2022-07-09T07:20:51;101743.19;;;26.53;53.69
54290;BME280;40196;39.774;2.728;2022-07-09T07:23:16;101754.63;;;26.55;52.91
54290;BME280;40196;39.774;2.728;2022-07-09T07:25:41;101737.78;;;26.60;52.74
54290;BME280;40196;39.774;2.728;2022-07-09T07:28:07;101747.78;;;26.66;52.62
54290;BME280;40196;39.774;2.728;2022-07-09T07:30:32;101746.06;;;26.71;52.72
54290;BME280;40196;39.774;2.728;2022-07-09T07:32:58;101752.69;;;26.82;52.18
54290;BME280;40196;39.774;2.728;2022-07-09T07:35:24;101750.78;;;26.83;52.47
54290;BME280;40196;39.774;2.728;2022-07-09T07:37:49;101756.03;;;26.78;52.90
54290;BME280;40196;39.774;2.728;2022-07-09T07:40:14;101759.09;;;26.88;52.15
54290;BME280;40196;39.774;2.728;2022-07-09T07:42:40;101763.69;;;26.87;51.97
54290;BME280;40196;39.774;2.728;2022-07-09T07:45:05;101759.47;;;26.98;51.86
54290;BME280;40196;39.774;2.728;2022-07-09T07:47:31;101762.53;;;27.08;52.55
54290;BME280;40196;39.774;2.728;2022-07-09T07:49:56;101762.28;;;27.17;53.58
54290;BME280;40196;39.774;2.728;2022-07-09T07:52:21;101759.72;;;27.22;54.50
54290;BME280;40196;39.774;2.728;2022-07-09T07:54:47;101759.34;;;27.18;54.70
54290;BME280;40196;39.774;2.728;2022-07-09T07:57:12;101761.59;;;27.28;54.52
54290;BME280;40196;39.774;2.728;2022-07-09T07:59:37;101763.28;;;27.29;53.78
54290;BME280;40196;39.774;2.728;2022-07-09T08:02:03;101766.16;;;27.34;54.20
54290;BME280;40196;39.774;2.728;2022-07-09T08:04:28;101756.50;;;27.45;54.25
54290;BME280;40196;39.774;2.728;2022-07-09T08:06:54;101749.97;;;27.52;53.71
54290;BME280;40196;39.774;2.728;2022-07-09T08:09:19;101757.22;;;27.59;54.98
54290;BME280;40196;39.774;2.728;2022-07-09T08:11:45;101753.28;;;27.54;54.69
54290;BME280;40196;39.774;2.728;2022-07-09T08:14:10;101757.59;;;27.62;54.17
54290;BME280;40196;39.774;2.728;2022-07-09T08:16:36;101754.28;;;27.60;53.08
54290;BME280;40196;39.774;2.728;2022-07-09T08:19:01;101759.03;;;27.65;53.10
54290;BME280;40196;39.774;2.728;2022-07-09T08:21:26;101750.66;;;27.73;53.60
54290;BME280;40196;39.774;2.728;2022-07-09T08:23:52;101751.41;;;27.80;53.78
54290;BME280;40196;39.774;2.728;2022-07-09T08:26:22;101751.53;;;27.92;52.23
54290;BME280;40196;39.774;2.728;2022-07-09T08:28:48;101754.03;;;27.93;49.49
54290;BME280;40196;39.774;2.728;2022-07-09T08:31:17;101745.44;;;27.97;48.84
54290;BME280;40196;39.774;2.728;2022-07-09T08:33:42;101754.97;;;28.06;49.25
54290;BME280;40196;39.774;2.728;2022-07-09T08:36:08;101748.03;;;28.10;48.73
54290;BME280;40196;39.774;2.728;2022-07-09T08:38:33;101747.13;;;28.16;46.15
54290;BME280;40196;39.774;2.728;2022-07-09T08:40:59;101753.53;;;28.22;46.69
54290;BME280;40196;39.774;2.728;2022-07-09T08:43:25;101750.75;;;28.28;43.80
54290;BME280;40196;39.774;2.728;2022-07-09T08:45:52;101742.16;;;28.31;42.72
54290;BME280;40196;39.774;2.728;2022-07-09T08:48:18;101739.13;;;28.40;42.57
54290;BME280;40196;39.774;2.728;2022-07-09T08:50:43;101744.25;;;28.48;42.07
54290;BME280;40196;39.774;2.728;2022-07-09T08:53:09;101748.34;;;28.57;40.84
54290;BME280;40196;39.774;2.728;2022-07-09T08:55:35;101745.47;;;28.70;41.21
54290;BME280;40196;39.774;2.728;2022-07-09T08:58:02;101742.22;;;28.80;41.57
54290;BME280;40196;39.774;2.728;2022-07-09T09:00:27;101737.75;;;28.86;39.42
54290;BME280;40196;39.774;2.728;2022-07-09T09:02:52;101735.09;;;28.98;39.25
54290;BME280;40196;39.774;2.728;2022-07-09T09:05:18;101739.34;;;29.05;38.62
54290;BME280;40196;39.774;2.728;2022-07-09T09:07:43;101740.47;;;29.16;38.03
54290;BME280;40196;39.774;2.728;2022-07-09T09:10:19;101740.59;;;29.21;37.79
54290;BME280;40196;39.774;2.728;2022-07-09T09:12:45;101737.69;;;29.35;37.57
54290;BME280;40196;39.774;2.728;2022-07-09T09:15:11;101735.09;;;29.40;37.22
54290;BME280;40196;39.774;2.728;2022-07-09T09:17:42;101730.38;;;29.47;37.52
54290;BME280;40196;39.774;2.728;2022-07-09T09:20:14;101739.94;;;29.49;38.38
54290;BME280;40196;39.774;2.728;2022-07-09T09:25:20;101738.31;;;29.60;38.54
54290;BME280;40196;39.774;2.728;2022-07-09T09:28:04;101742.34;;;29.69;36.85
54290;BME280;40196;39.774;2.728;2022-07-09T09:30:30;101748.75;;;29.75;36.37
54290;BME280;40196;39.774;2.728;2022-07-09T09:32:59;101732.78;;;29.79;37.47
54290;BME280;40196;39.774;2.728;2022-07-09T09:35:25;101748.16;;;29.85;35.58
54290;BME280;40196;39.774;2.728;2022-07-09T09:37:51;101743.19;;;29.94;36.81
54290;BME280;40196;39.774;2.728;2022-07-09T09:40:17;101748.16;;;29.97;36.52
54290;BME280;40196;39.774;2.728;2022-07-09T09:42:42;101743.06;;;30.00;36.92
54290;BME280;40196;39.774;2.728;2022-07-09T09:45:11;101737.28;;;30.08;35.42
54290;BME280;40196;39.774;2.728;2022-07-09T09:47:36;101735.94;;;30.23;35.49
54290;BME280;40196;39.774;2.728;2022-07-09T09:50:02;101742.78;;;30.37;34.93
54290;BME280;40196;39.774;2.728;2022-07-09T09:52:27;101750.72;;;30.39;34.07
54290;BME280;40196;39.774;2.728;2022-07-09T09:54:53;101749.75;;;30.45;34.59
54290;BME280;40196;39.774;2.728;2022-07-09T09:57:19;101754.63;;;30.43;34.12
54290;BME280;40196;39.774;2.728;2022-07-09T09:59:47;101755.78;;;30.47;32.42
54290;BME280;40196;39.774;2.728;2022-07-09T10:02:13;101758.88;;;30.39;32.96
54290;BME280;40196;39.774;2.728;2022-07-09T10:04:42;101754.25;;;30.39;32.55
54290;BME280;40196;39.774;2.728;2022-07-09T10:07:09;101758.50;;;30.47;32.58
54290;BME280;40196;39.774;2.728;2022-07-09T10:09:35;101758.72;;;30.57;32.39
54290;BME280;40196;39.774;2.728;2022-07-09T10:12:00;101755.50;;;30.60;31.38
54290;BME280;40196;39.774;2.728;2022-07-09T10:16:51;101759.16;;;30.66;30.79
54290;BME280;40196;39.774;2.728;2022-07-09T10:19:27;101750.41;;;30.64;30.72
54290;BME280;40196;39.774;2.728;2022-07-09T10:21:54;101751.34;;;30.70;30.41
54290;BME280;40196;39.774;2.728;2022-07-09T10:24:23;101759.97;;;30.66;30.60
54290;BME280;40196;39.774;2.728;2022-07-09T10:26:49;101752.66;;;30.67;31.39
54290;BME280;40196;39.774;2.728;2022-07-09T10:29:21;101755.34;;;30.79;31.87
54290;BME280;40196;39.774;2.728;2022-07-09T10:31:47;101741.81;;;30.84;32.30
54290;BME280;40196;39.774;2.728;2022-07-09T10:34:16;101734.81;;;30.88;32.16
54290;BME280;40196;39.774;2.728;2022-07-09T10:36:57;101747.50;;;30.94;32.01
54290;BME280;40196;39.774;2.728;2022-07-09T10:39:23;101747.56;;;30.99;32.94
54290;BME280;40196;39.774;2.728;2022-07-09T10:41:58;101746.00;;;31.03;32.42
54290;BME280;40196;39.774;2.728;2022-07-09T10:44:39;101749.28;;;31.17;33.26
54290;BME280;40196;39.774;2.728;2022-07-09T10:47:05;101747.03;;;31.14;33.63
54290;BME280;40196;39.774;2.728;2022-07-09T10:49:30;101744.72;;;31.23;33.47
54290;BME280;40196;39.774;2.728;2022-07-09T10:51:58;101740.81;;;31.19;34.02
54290;BME280;40196;39.774;2.728;2022-07-09T10:54:24;101737.16;;;31.25;33.80
54290;BME280;40196;39.774;2.728;2022-07-09T10:56:50;101728.63;;;31.21;34.62
54290;BME280;40196;39.774;2.728;2022-07-09T10:59:16;101732.94;;;31.17;34.63
54290;BME280;40196;39.774;2.728;2022-07-09T11:01:42;101725.72;;;31.28;33.87
54290;BME280;40196;39.774;2.728;2022-07-09T11:04:07;101726.66;;;31.34;34.54
54290;BME280;40196;39.774;2.728;2022-07-09T11:06:33;101718.22;;;31.35;35.16
54290;BME280;40196;39.774;2.728;2022-07-09T11:09:12;101706.19;;;31.48;36.02
54290;BME280;40196;39.774;2.728;2022-07-09T11:11:38;101712.38;;;31.60;35.57
54290;BME280;40196;39.774;2.728;2022-07-09T11:14:03;101716.84;;;31.67;34.33
54290;BME280;40196;39.774;2.728;2022-07-09T11:16:28;101717.41;;;31.69;35.60
54290;BME280;40196;39.774;2.728;2022-07-09T11:18:54;101709.78;;;31.71;35.58
54290;BME280;40196;39.774;2.728;2022-07-09T11:21:23;101699.88;;;31.81;35.10
54290;BME280;40196;39.774;2.728;2022-07-09T11:23:49;101713.81;;;31.85;35.72
54290;BME280;40196;39.774;2.728;2022-07-09T11:26:15;101707.41;;;31.96;35.49
54290;BME280;40196;39.774;2.728;2022-07-09T11:28:40;101697.66;;;32.00;34.86
54290;BME280;40196;39.774;2.728;2022-07-09T11:31:06;101701.06;;;31.91;36.61
54290;BME280;40196;39.774;2.728;2022-07-09T11:33:32;101704.84;;;32.07;36.44
54290;BME280;40196;39.774;2.728;2022-07-09T11:36:19;101707.75;;;32.00;38.32
54290;BME280;40196;39.774;2.728;2022-07-09T11:38:51;101698.97;;;32.15;37.68
54290;BME280;40196;39.774;2.728;2022-07-09T11:41:17;101691.34;;;32.17;38.57
54290;BME280;40196;39.774;2.728;2022-07-09T11:43:49;101689.78;;;32.21;39.26
54290;BME280;40196;39.774;2.728;2022-07-09T11:46:18;101681.25;;;32.17;39.06
54290;BME280;40196;39.774;2.728;2022-07-09T11:48:48;101684.13;;;32.06;40.02
54290;BME280;40196;39.774;2.728;2022-07-09T11:51:13;101672.28;;;32.00;39.24
54290;BME280;40196;39.774;2.728;2022-07-09T11:53:38;101674.28;;;32.05;40.82
54290;BME280;40196;39.774;2.728;2022-07-09T11:56:04;101680.91;;;32.09;40.45
54290;BME280;40196;39.774;2.728;2022-07-09T11:58:29;101684.44;;;32.09;40.91
54290;BME280;40196;39.774;2.728;2022-07-09T12:00:55;101678.97;;;32.09;40.75
54290;BME280;40196;39.774;2.728;2022-07-09T12:03:23;101671.69;;;32.15;41.07
54290;BME280;40196;39.774;2.728;2022-07-09T12:05:50;101674.38;;;32.37;41.01
54290;BME280;40196;39.774;2.728;2022-07-09T12:08:25;101664.19;;;32.54;39.69
54290;BME280;40196;39.774;2.728;2022-07-09T12:10:51;101663.00;;;32.45;39.97
54290;BME280;40196;39.774;2.728;2022-07-09T12:13:16;101666.38;;;32.52;39.99
54290;BME280;40196;39.774;2.728;2022-07-09T12:15:41;101669.88;;;32.48;39.64
54290;BME280;40196;39.774;2.728;2022-07-09T12:18:07;101669.59;;;32.49;40.95
54290;BME280;40196;39.774;2.728;2022-07-09T12:20:32;101659.56;;;32.55;40.72
54290;BME280;40196;39.774;2.728;2022-07-09T12:22:57;101651.47;;;32.60;39.79
54290;BME280;40196;39.774;2.728;2022-07-09T12:25:23;101663.25;;;32.66;39.09
54290;BME280;40196;39.774;2.728;2022-07-09T12:27:48;101654.81;;;32.67;39.96
54290;BME280;40196;39.774;2.728;2022-07-09T12:30:17;101650.41;;;32.66;38.82
54290;BME280;40196;39.774;2.728;2022-07-09T12:32:42;101649.03;;;32.64;40.48
54290;BME280;40196;39.774;2.728;2022-07-09T12:35:08;101651.22;;;32.61;39.27
54290;BME280;40196;39.774;2.728;2022-07-09T12:37:34;101651.44;;;32.87;39.82
54290;BME280;40196;39.774;2.728;2022-07-09T12:40:00;101648.84;;;33.08;39.75
54290;BME280;40196;39.774;2.728;2022-07-09T12:42:26;101650.97;;;33.33;38.85
54290;BME280;40196;39.774;2.728;2022-07-09T12:44:51;101650.53;;;33.46;37.85
54290;BME280;40196;39.774;2.728;2022-07-09T12:47:17;101650.03;;;33.54;37.06
54290;BME280;40196;39.774;2.728;2022-07-09T12:49:42;101647.84;;;33.56;37.43